sensor_id;sensor_type;location;lat;lon;timestamp;pressure;altitude;pressure_sealevel;temperature;humidity
46942;BME280;32676;52.630;4.896;2023-05-17T00:00:47;100559.16;;;10.88;80.84
46942;BME280;32676;52.630;4.896;2023-05-17T00:03:14;100571.25;;;10.92;80.71
46942;BME280;32676;52.630;4.896;2023-05-17T00:05:40;100544.06;;;10.69;80.90
46942;BME280;32676;52.630;4.896;2023-05-17T00:08:06;100584.34;;;10.93;80.82
46942;BME280;32676;52.630;4.896;2023-05-17T00:10:32;100593.03;;;10.95;80.85
46942;BME280;32676;52.630;4.896;2023-05-17T00:12:59;100593.03;;;10.95;80.74
46942;BME280;32676;52.630;4.896;2023-05-17T00:15:26;100600.03;;;10.95;80.55
46942;BME280;32676;52.630;4.896;2023-05-17T00:17:53;100599.13;;;10.96;80.49
46942;BME280;32676;52.630;4.896;2023-05-17T00:20:19;100608.75;;;10.97;80.38
46942;BME280;32676;52.630;4.896;2023-05-17T00:22:46;100613.94;;;10.99;80.34
46942;BME280;32676;52.630;4.896;2023-05-17T00:25:12;100625.19;;;11.02;80.16
46942;BME280;32676;52.630;4.896;2023-05-17T00:27:38;100635.66;;;11.04;80.36
46942;BME280;32676;52.630;4.896;2023-05-17T00:30:05;100642.69;;;11.03;79.98
46942;BME280;32676;52.630;4.896;2023-05-17T00:32:33;100630.44;;;11.02;79.96
46942;BME280;32676;52.630;4.896;2023-05-17T00:34:59;100623.59;;;10.98;79.81
46942;BME280;32676;52.630;4.896;2023-05-17T00:37:26;100646.22;;;11.02;79.68
46942;BME280;32676;52.630;4.896;2023-05-17T00:39:52;100638.41;;;11.01;79.48
46942;BME280;32676;52.630;4.896;2023-05-17T00:42:18;100635.84;;;10.99;78.92
46942;BME280;32676;52.630;4.896;2023-05-17T00:44:45;100650.63;;;11.02;79.00
46942;BME280;32676;52.630;4.896;2023-05-17T00:47:11;100644.53;;;11.01;78.84
46942;BME280;32676;52.630;4.896;2023-05-17T00:49:39;100628.84;;;10.98;78.74
46942;BME280;32676;52.630;4.896;2023-05-17T00:52:05;100637.59;;;10.99;78.74
46942;BME280;32676;52.630;4.896;2023-05-17T00:54:32;100643.72;;;10.99;78.34
46942;BME280;32676;52.630;4.896;2023-05-17T00:56:58;100635.84;;;10.99;78.49
46942;BME280;32676;52.630;4.896;2023-05-17T00:59:25;100637.59;;;10.99;78.52
46942;BME280;32676;52.630;4.896;2023-05-17T01:01:51;100632.41;;;10.97;78.28
46942;BME280;32676;52.630;4.896;2023-05-17T01:04:18;100625.44;;;10.96;78.43
46942;BME280;32676;52.630;4.896;2023-05-17T01:06:46;100608.97;;;10.91;78.17
46942;BME280;32676;52.630;4.896;2023-05-17T01:09:13;100607.28;;;10.90;78.32
46942;BME280;32676;52.630;4.896;2023-05-17T01:11:41;100607.28;;;10.90;78.23
46942;BME280;32676;52.630;4.896;2023-05-17T01:14:12;100600.28;;;10.89;78.47
46942;BME280;32676;52.630;4.896;2023-05-17T01:16:46;100608.16;;;10.89;78.31
46942;BME280;32676;52.630;4.896;2023-05-17T01:19:15;100604.63;;;10.90;78.49
46942;BME280;32676;52.630;4.896;2023-05-17T01:21:49;100599.47;;;10.87;78.44
46942;BME280;32676;52.630;4.896;2023-05-17T01:24:24;100597.75;;;10.86;78.35
46942;BME280;32676;52.630;4.896;2023-05-17T01:26:53;100609.16;;;10.86;78.37
46942;BME280;32676;52.630;4.896;2023-05-17T01:29:20;100600.38;;;10.86;78.48
46942;BME280;32676;52.630;4.896;2023-05-17T01:31:49;100594.34;;;10.84;78.34
46942;BME280;32676;52.630;4.896;2023-05-17T01:34:23;100609.22;;;10.85;78.76
46942;BME280;32676;52.630;4.896;2023-05-17T01:36:49;100579.16;;;10.68;78.99
46942;BME280;32676;52.630;4.896;2023-05-17T01:39:16;100585.66;;;10.82;78.74
46942;BME280;32676;52.630;4.896;2023-05-17T01:41:42;100582.22;;;10.80;78.18
46942;BME280;32676;52.630;4.896;2023-05-17T01:44:14;100571.81;;;10.76;78.05
46942;BME280;32676;52.630;4.896;2023-05-17T01:46:43;100555.31;;;10.73;77.93
46942;BME280;32676;52.630;4.896;2023-05-17T01:49:10;100527.63;;;10.64;77.78
46942;BME280;32676;52.630;4.896;2023-05-17T01:51:38;100498.94;;;10.58;77.49
46942;BME280;32676;52.630;4.896;2023-05-17T01:54:09;100462.50;;;10.49;77.34
46942;BME280;32676;52.630;4.896;2023-05-17T01:56:38;100443.44;;;10.44;77.50
46942;BME280;32676;52.630;4.896;2023-05-17T01:59:06;100416.56;;;10.37;77.11
46942;BME280;32676;52.630;4.896;2023-05-17T02:01:34;100398.34;;;10.32;77.24
46942;BME280;32676;52.630;4.896;2023-05-17T02:04:01;100374.03;;;10.26;76.90
46942;BME280;32676;52.630;4.896;2023-05-17T02:06:27;100343.78;;;10.17;76.98
46942;BME280;32676;52.630;4.896;2023-05-17T02:08:54;100317.69;;;10.12;76.76
46942;BME280;32676;52.630;4.896;2023-05-17T02:11:22;100290.81;;;10.06;76.82
46942;BME280;32676;52.630;4.896;2023-05-17T02:13:49;100266.53;;;10.01;77.05
46942;BME280;32676;52.630;4.896;2023-05-17T02:16:15;100271.78;;;10.01;76.67
46942;BME280;32676;52.630;4.896;2023-05-17T02:18:42;100256.25;;;9.94;76.54
46942;BME280;32676;52.630;4.896;2023-05-17T02:21:09;100226.84;;;9.86;76.10
46942;BME280;32676;52.630;4.896;2023-05-17T02:23:37;100209.38;;;9.85;76.07
46942;BME280;32676;52.630;4.896;2023-05-17T02:26:03;100193.88;;;9.79;75.81
46942;BME280;32676;52.630;4.896;2023-05-17T02:28:30;100192.16;;;9.78;75.74
46942;BME280;32676;52.630;4.896;2023-05-17T02:30:57;100169.59;;;9.74;75.50
46942;BME280;32676;52.630;4.896;2023-05-17T02:33:23;100158.34;;;9.70;75.30
46942;BME280;32676;52.630;4.896;2023-05-17T02:35:50;100137.53;;;9.66;75.28
46942;BME280;32676;52.630;4.896;2023-05-17T02:38:17;100136.75;;;9.64;75.47
46942;BME280;32676;52.630;4.896;2023-05-17T02:40:43;100121.16;;;9.60;75.29
46942;BME280;32676;52.630;4.896;2023-05-17T02:43:09;100108.22;;;9.56;75.14
46942;BME280;32676;52.630;4.896;2023-05-17T02:45:36;100097.78;;;9.54;75.44
46942;BME280;32676;52.630;4.896;2023-05-17T02:48:02;100089.19;;;9.51;75.41
46942;BME280;32676;52.630;4.896;2023-05-17T02:50:28;100071.88;;;9.47;75.72
46942;BME280;32676;52.630;4.896;2023-05-17T02:52:56;100065.78;;;9.46;75.88
46942;BME280;32676;52.630;4.896;2023-05-17T02:55:22;100058.91;;;9.42;76.08
46942;BME280;32676;52.630;4.896;2023-05-17T02:57:49;100043.34;;;9.39;76.42
46942;BME280;32676;52.630;4.896;2023-05-17T03:00:15;100032.06;;;9.37;76.62
46942;BME280;32676;52.630;4.896;2023-05-17T03:02:42;100044.28;;;9.36;77.04
46942;BME280;32676;52.630;4.896;2023-05-17T03:05:08;100044.25;;;9.38;77.21
46942;BME280;32676;52.630;4.896;2023-05-17T03:07:35;100056.31;;;9.42;77.36
46942;BME280;32676;52.630;4.896;2023-05-17T03:10:03;100060.66;;;9.43;77.34
46942;BME280;32676;52.630;4.896;2023-05-17T03:12:29;100078.09;;;9.44;77.34
46942;BME280;32676;52.630;4.896;2023-05-17T03:14:55;100072.84;;;9.44;77.22
46942;BME280;32676;52.630;4.896;2023-05-17T03:17:21;100072.84;;;9.44;77.43
46942;BME280;32676;52.630;4.896;2023-05-17T03:19:48;100079.78;;;9.45;77.39
46942;BME280;32676;52.630;4.896;2023-05-17T03:22:14;100077.22;;;9.44;77.51
46942;BME280;32676;52.630;4.896;2023-05-17T03:24:40;100069.34;;;9.44;77.34
46942;BME280;32676;52.630;4.896;2023-05-17T03:27:08;100085.03;;;9.45;77.58
46942;BME280;32676;52.630;4.896;2023-05-17T03:29:34;100089.38;;;9.46;77.39
46942;BME280;32676;52.630;4.896;2023-05-17T03:32:01;100089.38;;;9.46;77.29
46942;BME280;32676;52.630;4.896;2023-05-17T03:34:27;100095.53;;;9.45;76.94
46942;BME280;32676;52.630;4.896;2023-05-17T03:36:53;100081.63;;;9.43;76.75
46942;BME280;32676;52.630;4.896;2023-05-17T03:39:20;100072.97;;;9.41;76.56
46942;BME280;32676;52.630;4.896;2023-05-17T03:41:46;100070.34;;;9.41;76.45
46942;BME280;32676;52.630;4.896;2023-05-17T03:44:13;100071.25;;;9.40;76.59
46942;BME280;32676;52.630;4.896;2023-05-17T03:46:40;100066.94;;;9.39;76.50
46942;BME280;32676;52.630;4.896;2023-05-17T03:49:06;100064.41;;;9.36;76.29
46942;BME280;32676;52.630;4.896;2023-05-17T03:51:32;100057.47;;;9.35;76.21
46942;BME280;32676;52.630;4.896;2023-05-17T03:53:59;100047.91;;;9.34;76.12
46942;BME280;32676;52.630;4.896;2023-05-17T03:56:26;100048.81;;;9.33;75.98
46942;BME280;32676;52.630;4.896;2023-05-17T03:58:52;100047.13;;;9.32;76.03
46942;BME280;32676;52.630;4.896;2023-05-17T04:01:20;100045.41;;;9.31;75.93
46942;BME280;32676;52.630;4.896;2023-05-17T04:03:46;100039.31;;;9.30;75.78
46942;BME280;32676;52.630;4.896;2023-05-17T04:06:12;100043.72;;;9.30;75.72
46942;BME280;32676;52.630;4.896;2023-05-17T04:08:40;100036.84;;;9.26;75.66
46942;BME280;32676;52.630;4.896;2023-05-17T04:11:06;100043.72;;;9.30;75.88
46942;BME280;32676;52.630;4.896;2023-05-17T04:13:37;100050.63;;;9.31;75.88
46942;BME280;32676;52.630;4.896;2023-05-17T04:16:03;100065.31;;;9.35;75.88
46942;BME280;32676;52.630;4.896;2023-05-17T04:18:33;100079.16;;;9.38;75.88
46942;BME280;32676;52.630;4.896;2023-05-17T04:20:59;100104.44;;;9.41;75.77
46942;BME280;32676;52.630;4.896;2023-05-17T04:23:26;100113.09;;;9.43;75.83
46942;BME280;32676;52.630;4.896;2023-05-17T04:25:52;100120.84;;;9.46;75.74
46942;BME280;32676;52.630;4.896;2023-05-17T04:28:18;100140.78;;;9.50;75.56
46942;BME280;32676;52.630;4.896;2023-05-17T04:30:46;100168.47;;;9.57;75.46
46942;BME280;32676;52.630;4.896;2023-05-17T04:33:12;100192.78;;;9.63;75.04
46942;BME280;32676;52.630;4.896;2023-05-17T04:35:41;100217.03;;;9.68;74.86
46942;BME280;32676;52.630;4.896;2023-05-17T04:38:07;100243.91;;;9.74;74.95
46942;BME280;32676;52.630;4.896;2023-05-17T04:40:35;100260.47;;;9.75;74.72
46942;BME280;32676;52.630;4.896;2023-05-17T04:43:02;100287.31;;;9.83;74.62
46942;BME280;32676;52.630;4.896;2023-05-17T04:45:28;100279.44;;;9.83;74.37
46942;BME280;32676;52.630;4.896;2023-05-17T04:47:54;100296.91;;;9.84;74.21
46942;BME280;32676;52.630;4.896;2023-05-17T04:50:21;100317.66;;;9.90;74.08
46942;BME280;32676;52.630;4.896;2023-05-17T04:52:49;100322.91;;;9.90;73.78
46942;BME280;32676;52.630;4.896;2023-05-17T04:55:15;100315.91;;;9.89;73.67
46942;BME280;32676;52.630;4.896;2023-05-17T04:57:42;100331.56;;;9.92;73.54
46942;BME280;32676;52.630;4.896;2023-05-17T05:00:09;100336.81;;;9.92;73.47
46942;BME280;32676;52.630;4.896;2023-05-17T05:02:35;100357.56;;;9.98;72.91
46942;BME280;32676;52.630;4.896;2023-05-17T05:05:02;100380.19;;;10.03;72.76
46942;BME280;32676;52.630;4.896;2023-05-17T05:07:28;100417.44;;;10.12;72.37
46942;BME280;32676;52.630;4.896;2023-05-17T05:09:56;100463.41;;;10.24;72.23
46942;BME280;32676;52.630;4.896;2023-05-17T05:12:23;100505.13;;;10.33;71.79
46942;BME280;32676;52.630;4.896;2023-05-17T05:14:49;100546.81;;;10.43;71.30
46942;BME280;32676;52.630;4.896;2023-05-17T05:17:15;100583.31;;;10.50;71.11
46942;BME280;32676;52.630;4.896;2023-05-17T05:19:42;100624.97;;;10.61;70.75
46942;BME280;32676;52.630;4.896;2023-05-17T05:22:08;100679.72;;;10.73;70.71
46942;BME280;32676;52.630;4.896;2023-05-17T05:24:35;100717.94;;;10.82;70.36
46942;BME280;32676;52.630;4.896;2023-05-17T05:27:03;100730.13;;;10.85;70.37
46942;BME280;32676;52.630;4.896;2023-05-17T05:29:29;100743.16;;;10.88;70.15
46942;BME280;32676;52.630;4.896;2023-05-17T05:31:55;100755.38;;;10.89;69.78
46942;BME280;32676;52.630;4.896;2023-05-17T05:34:22;100771.91;;;10.92;69.59
46942;BME280;32676;52.630;4.896;2023-05-17T05:36:48;100757.13;;;10.90;69.75
46942;BME280;32676;52.630;4.896;2023-05-17T05:39:14;100764.94;;;10.91;69.35
46942;BME280;32676;52.630;4.896;2023-05-17T05:41:41;100788.34;;;10.99;68.99
46942;BME280;32676;52.630;4.896;2023-05-17T05:44:09;100818.88;;;11.03;68.70
46942;BME280;32676;52.630;4.896;2023-05-17T05:46:35;100831.91;;;11.06;68.37
46942;BME280;32676;52.630;4.896;2023-05-17T05:49:01;100870.13;;;11.17;68.04
46942;BME280;32676;52.630;4.896;2023-05-17T05:51:28;100897.97;;;11.22;67.38
46942;BME280;32676;52.630;4.896;2023-05-17T05:53:55;100935.38;;;11.32;67.19
46942;BME280;32676;52.630;4.896;2023-05-17T05:56:22;100990.22;;;11.44;66.49
46942;BME280;32676;52.630;4.896;2023-05-17T05:58:51;101019.75;;;11.52;66.19
46942;BME280;32676;52.630;4.896;2023-05-17T06:01:19;101076.41;;;11.64;65.32
46942;BME280;32676;52.630;4.896;2023-05-17T06:03:45;101124.25;;;11.77;64.83
46942;BME280;32676;52.630;4.896;2023-05-17T06:06:11;101153.00;;;11.83;64.06
46942;BME280;32676;52.630;4.896;2023-05-17T06:08:39;101180.91;;;11.90;63.73
46942;BME280;32676;52.630;4.896;2023-05-17T06:11:07;101212.25;;;11.98;63.20
46942;BME280;32676;52.630;4.896;2023-05-17T06:13:33;101242.78;;;12.04;62.03
46942;BME280;32676;52.630;4.896;2023-05-17T06:15:59;101265.53;;;12.08;62.22
46942;BME280;32676;52.630;4.896;2023-05-17T06:18:27;101302.09;;;12.17;62.25
46942;BME280;32676;52.630;4.896;2023-05-17T06:20:53;101344.81;;;12.27;62.43
46942;BME280;32676;52.630;4.896;2023-05-17T06:23:20;101385.84;;;12.36;62.09
46942;BME280;32676;52.630;4.896;2023-05-17T06:25:46;101378.84;;;12.35;61.73
46942;BME280;32676;52.630;4.896;2023-05-17T06:28:12;101354.41;;;12.29;61.95
46942;BME280;32676;52.630;4.896;2023-05-17T06:30:38;101396.31;;;12.39;62.07
46942;BME280;32676;52.630;4.896;2023-05-17T06:33:05;101441.66;;;12.50;62.52
46942;BME280;32676;52.630;4.896;2023-05-17T06:35:33;101439.91;;;12.49;62.06
46942;BME280;32676;52.630;4.896;2023-05-17T06:38:00;101431.19;;;12.47;60.77
46942;BME280;32676;52.630;4.896;2023-05-17T06:40:26;101430.31;;;12.46;59.29
46942;BME280;32676;52.630;4.896;2023-05-17T06:42:53;101428.59;;;12.45;58.94
46942;BME280;32676;52.630;4.896;2023-05-17T06:45:19;101429.44;;;12.46;57.93
46942;BME280;32676;52.630;4.896;2023-05-17T06:47:45;101440.75;;;12.49;58.06
46942;BME280;32676;52.630;4.896;2023-05-17T06:50:12;101432.94;;;12.48;58.34
46942;BME280;32676;52.630;4.896;2023-05-17T06:52:40;101433.00;;;12.45;57.72
46942;BME280;32676;52.630;4.896;2023-05-17T06:55:06;101426.00;;;12.44;57.85
46942;BME280;32676;52.630;4.896;2023-05-17T06:57:33;101437.31;;;12.47;58.01
46942;BME280;32676;52.630;4.896;2023-05-17T06:59:59;101491.41;;;12.61;58.04
46942;BME280;32676;52.630;4.896;2023-05-17T07:02:25;101511.47;;;12.66;58.13
46942;BME280;32676;52.630;4.896;2023-05-17T07:04:52;101545.50;;;12.74;57.95
46942;BME280;32676;52.630;4.896;2023-05-17T07:07:18;101602.28;;;12.86;57.77
46942;BME280;32676;52.630;4.896;2023-05-17T07:09:46;101660.84;;;12.99;57.51
46942;BME280;32676;52.630;4.896;2023-05-17T07:12:12;101702.69;;;13.11;57.05
46942;BME280;32676;52.630;4.896;2023-05-17T07:14:39;101721.03;;;13.16;55.75
46942;BME280;32676;52.630;4.896;2023-05-17T07:17:05;101734.19;;;13.17;55.07
46942;BME280;32676;52.630;4.896;2023-05-17T07:19:31;101749.00;;;13.23;54.38
46942;BME280;32676;52.630;4.896;2023-05-17T07:21:58;101766.53;;;13.24;53.95
46942;BME280;32676;52.630;4.896;2023-05-17T07:24:24;101789.25;;;13.31;54.07
46942;BME280;32676;52.630;4.896;2023-05-17T07:26:52;101805.91;;;13.33;54.11
46942;BME280;32676;52.630;4.896;2023-05-17T07:29:18;101847.00;;;13.43;54.08
46942;BME280;32676;52.630;4.896;2023-05-17T07:31:44;101815.50;;;13.37;53.60
46942;BME280;32676;52.630;4.896;2023-05-17T07:34:11;101797.13;;;13.33;53.40
46942;BME280;32676;52.630;4.896;2023-05-17T07:36:38;101822.47;;;13.38;53.74
46942;BME280;32676;52.630;4.896;2023-05-17T07:39:04;101869.72;;;13.49;53.91
46942;BME280;32676;52.630;4.896;2023-05-17T07:41:30;101891.59;;;13.54;54.30
46942;BME280;32676;52.630;4.896;2023-05-17T07:43:59;101854.00;;;13.44;53.74
46942;BME280;32676;52.630;4.896;2023-05-17T07:46:25;101785.75;;;13.29;53.12
46942;BME280;32676;52.630;4.896;2023-05-17T07:48:52;101715.84;;;13.13;53.45
46942;BME280;32676;52.630;4.896;2023-05-17T07:51:18;101648.56;;;12.98;53.74
46942;BME280;32676;52.630;4.896;2023-05-17T07:53:45;101626.75;;;12.91;53.88
46942;BME280;32676;52.630;4.896;2023-05-17T07:56:11;101584.81;;;12.82;54.25
46942;BME280;32676;52.630;4.896;2023-05-17T07:58:38;101646.88;;;12.95;54.98
46942;BME280;32676;52.630;4.896;2023-05-17T08:01:06;101701.84;;;13.11;55.48
46942;BME280;32676;52.630;4.896;2023-05-17T08:03:33;101728.91;;;13.17;54.71
46942;BME280;32676;52.630;4.896;2023-05-17T08:06:00;101818.13;;;13.37;54.03
46942;BME280;32676;52.630;4.896;2023-05-17T08:08:26;101870.56;;;13.50;53.92
46942;BME280;32676;52.630;4.896;2023-05-17T08:10:52;101908.22;;;13.58;53.16
46942;BME280;32676;52.630;4.896;2023-05-17T08:13:19;101903.81;;;13.57;52.90
46942;BME280;32676;52.630;4.896;2023-05-17T08:15:45;101861.00;;;13.46;53.16
46942;BME280;32676;52.630;4.896;2023-05-17T08:18:13;101832.97;;;13.41;52.78
46942;BME280;32676;52.630;4.896;2023-05-17T08:20:39;101915.25;;;13.59;52.86
46942;BME280;32676;52.630;4.896;2023-05-17T08:23:05;101968.50;;;13.75;52.57
46942;BME280;32676;52.630;4.896;2023-05-17T08:25:31;102021.06;;;13.84;51.95
46942;BME280;32676;52.630;4.896;2023-05-17T08:27:58;102028.97;;;13.86;51.51
46942;BME280;32676;52.630;4.896;2023-05-17T08:30:24;102049.06;;;13.91;51.40
46942;BME280;32676;52.630;4.896;2023-05-17T08:32:50;102061.34;;;13.94;50.91
46942;BME280;32676;52.630;4.896;2023-05-17T08:35:18;102073.59;;;13.96;50.52
46942;BME280;32676;52.630;4.896;2023-05-17T08:37:45;102078.81;;;13.99;50.19
46942;BME280;32676;52.630;4.896;2023-05-17T08:40:11;102132.22;;;14.12;50.38
46942;BME280;32676;52.630;4.896;2023-05-17T08:42:38;102116.44;;;14.09;49.73
46942;BME280;32676;52.630;4.896;2023-05-17T08:45:06;102134.88;;;14.12;49.38
46942;BME280;32676;52.630;4.896;2023-05-17T08:47:34;102194.44;;;14.26;49.13
46942;BME280;32676;52.630;4.896;2023-05-17T08:50:01;102139.22;;;14.13;49.50
46942;BME280;32676;52.630;4.896;2023-05-17T08:52:31;102189.97;;;14.28;49.35
46942;BME280;32676;52.630;4.896;2023-05-17T08:54:58;102272.41;;;14.45;49.61
46942;BME280;32676;52.630;4.896;2023-05-17T08:57:25;102316.25;;;14.55;49.39
46942;BME280;32676;52.630;4.896;2023-05-17T08:59:53;102346.03;;;14.64;49.47
46942;BME280;32676;52.630;4.896;2023-05-17T09:02:20;102391.66;;;14.73;49.75
46942;BME280;32676;52.630;4.896;2023-05-17T09:04:47;102433.72;;;14.84;49.13
46942;BME280;32676;52.630;4.896;2023-05-17T09:07:19;102427.56;;;14.84;48.14
46942;BME280;32676;52.630;4.896;2023-05-17T09:09:47;102454.81;;;14.89;47.85
46942;BME280;32676;52.630;4.896;2023-05-17T09:12:16;102491.66;;;14.96;48.34
46942;BME280;32676;52.630;4.896;2023-05-17T09:14:42;102565.34;;;15.15;48.26
46942;BME280;32676;52.630;4.896;2023-05-17T09:17:12;102595.19;;;15.23;47.99
46942;BME280;32676;52.630;4.896;2023-05-17T09:19:41;102553.09;;;15.11;48.73
46942;BME280;32676;52.630;4.896;2023-05-17T09:22:08;102584.69;;;15.19;49.29
46942;BME280;32676;52.630;4.896;2023-05-17T09:24:34;102582.88;;;15.21;49.00
46942;BME280;32676;52.630;4.896;2023-05-17T09:27:02;102504.81;;;15.01;49.55
46942;BME280;32676;52.630;4.896;2023-05-17T09:29:29;102414.38;;;14.82;49.70
46942;BME280;32676;52.630;4.896;2023-05-17T09:31:56;102368.78;;;14.71;49.62
46942;BME280;32676;52.630;4.896;2023-05-17T09:34:23;102395.97;;;14.77;49.92
46942;BME280;32676;52.630;4.896;2023-05-17T09:36:49;102358.25;;;14.68;49.81
46942;BME280;32676;52.630;4.896;2023-05-17T09:39:16;102387.22;;;14.75;49.79
46942;BME280;32676;52.630;4.896;2023-05-17T09:41:43;102410.00;;;14.81;49.07
46942;BME280;32676;52.630;4.896;2023-05-17T09:44:12;102412.66;;;14.81;49.39
46942;BME280;32676;52.630;4.896;2023-05-17T09:46:40;102431.94;;;14.86;49.63
46942;BME280;32676;52.630;4.896;2023-05-17T09:49:06;102448.63;;;14.90;49.64
46942;BME280;32676;52.630;4.896;2023-05-17T09:51:35;102427.56;;;14.84;48.76
46942;BME280;32676;52.630;4.896;2023-05-17T09:54:02;102310.88;;;14.58;49.58
46942;BME280;32676;52.630;4.896;2023-05-17T09:56:28;102230.25;;;14.39;49.19
46942;BME280;32676;52.630;4.896;2023-05-17T09:58:55;102261.81;;;14.45;49.67
46942;BME280;32676;52.630;4.896;2023-05-17T10:01:23;102254.78;;;14.44;49.36
46942;BME280;32676;52.630;4.896;2023-05-17T10:03:51;102199.59;;;14.32;48.91
46942;BME280;32676;52.630;4.896;2023-05-17T10:06:19;102267.03;;;14.48;49.53
46942;BME280;32676;52.630;4.896;2023-05-17T10:08:50;102264.44;;;14.47;49.59
46942;BME280;32676;52.630;4.896;2023-05-17T10:11:16;102308.22;;;14.57;49.22
46942;BME280;32676;52.630;4.896;2023-05-17T10:13:45;102345.97;;;14.67;48.80
46942;BME280;32676;52.630;4.896;2023-05-17T10:16:12;102372.25;;;14.73;49.12
46942;BME280;32676;52.630;4.896;2023-05-17T10:18:41;102380.16;;;14.74;48.98
46942;BME280;32676;52.630;4.896;2023-05-17T10:21:07;102408.25;;;14.80;48.93
46942;BME280;32676;52.630;4.896;2023-05-17T10:23:34;102372.25;;;14.73;49.05
46942;BME280;32676;52.630;4.896;2023-05-17T10:26:03;102322.25;;;14.62;48.52
46942;BME280;32676;52.630;4.896;2023-05-17T10:28:31;102338.91;;;14.66;48.55
46942;BME280;32676;52.630;4.896;2023-05-17T10:30:58;102385.41;;;14.76;48.45
46942;BME280;32676;52.630;4.896;2023-05-17T10:33:25;102323.16;;;14.63;48.43
46942;BME280;32676;52.630;4.896;2023-05-17T10:35:53;102328.44;;;14.63;48.17
46942;BME280;32676;52.630;4.896;2023-05-17T10:38:20;102262.66;;;14.47;47.78
46942;BME280;32676;52.630;4.896;2023-05-17T10:40:48;102291.56;;;14.53;48.06
46942;BME280;32676;52.630;4.896;2023-05-17T10:43:16;102320.50;;;14.63;48.63
46942;BME280;32676;52.630;4.896;2023-05-17T10:45:43;102399.44;;;14.80;48.77
46942;BME280;32676;52.630;4.896;2023-05-17T10:48:12;102440.69;;;14.90;48.57
46942;BME280;32676;52.630;4.896;2023-05-17T10:50:40;102466.94;;;14.97;47.76
46942;BME280;32676;52.630;4.896;2023-05-17T10:53:08;102460.81;;;14.95;47.87
46942;BME280;32676;52.630;4.896;2023-05-17T10:55:36;102496.84;;;15.03;47.44
46942;BME280;32676;52.630;4.896;2023-05-17T10:58:13;102556.53;;;15.16;47.33
46942;BME280;32676;52.630;4.896;2023-05-17T11:00:44;102567.03;;;15.19;47.66
46942;BME280;32676;52.630;4.896;2023-05-17T11:03:12;102522.28;;;15.08;47.26
46942;BME280;32676;52.630;4.896;2023-05-17T11:05:40;102553.88;;;15.16;47.64
46942;BME280;32676;52.630;4.896;2023-05-17T11:08:17;102564.41;;;15.19;47.70
46942;BME280;32676;52.630;4.896;2023-05-17T11:11:06;102501.19;;;15.04;47.52
46942;BME280;32676;52.630;4.896;2023-05-17T11:13:33;102500.31;;;15.05;47.88
46942;BME280;32676;52.630;4.896;2023-05-17T11:16:02;102532.78;;;15.11;48.37
46942;BME280;32676;52.630;4.896;2023-05-17T11:21:12;102630.22;;;15.34;48.56
46942;BME280;32676;52.630;4.896;2023-05-17T11:23:39;102693.47;;;15.50;48.34
46942;BME280;32676;52.630;4.896;2023-05-17T11:26:11;102725.06;;;15.59;47.72
46942;BME280;32676;52.630;4.896;2023-05-17T11:28:37;102730.31;;;15.61;47.92
46942;BME280;32676;52.630;4.896;2023-05-17T11:31:04;102734.75;;;15.60;47.16
46942;BME280;32676;52.630;4.896;2023-05-17T11:33:37;102721.53;;;15.57;47.36
46942;BME280;32676;52.630;4.896;2023-05-17T11:36:05;102667.94;;;15.46;47.49
46942;BME280;32676;52.630;4.896;2023-05-17T11:38:32;102597.69;;;15.29;47.38
46942;BME280;32676;52.630;4.896;2023-05-17T11:41:14;102599.44;;;15.30;47.65
46942;BME280;32676;52.630;4.896;2023-05-17T11:43:43;102563.47;;;15.20;47.26
46942;BME280;32676;52.630;4.896;2023-05-17T11:46:10;102560.81;;;15.20;47.56
46942;BME280;32676;52.630;4.896;2023-05-17T11:48:43;102533.56;;;15.15;47.25
46942;BME280;32676;52.630;4.896;2023-05-17T11:51:11;102479.19;;;15.02;47.30
46942;BME280;32676;52.630;4.896;2023-05-17T11:53:38;102425.69;;;14.89;47.14
46942;BME280;32676;52.630;4.896;2023-05-17T11:56:06;102386.19;;;14.81;47.27
46942;BME280;32676;52.630;4.896;2023-05-17T11:58:35;102419.53;;;14.88;47.00
46942;BME280;32676;52.630;4.896;2023-05-17T12:01:02;102401.09;;;14.84;47.34
46942;BME280;32676;52.630;4.896;2023-05-17T12:03:29;102369.53;;;14.76;47.94
46942;BME280;32676;52.630;4.896;2023-05-17T12:06:03;102316.03;;;14.65;47.53
46942;BME280;32676;52.630;4.896;2023-05-17T12:08:30;102284.44;;;14.58;47.36
46942;BME280;32676;52.630;4.896;2023-05-17T12:10:57;102289.72;;;14.58;47.19
46942;BME280;32676;52.630;4.896;2023-05-17T12:13:25;102309.91;;;14.63;48.29
46942;BME280;32676;52.630;4.896;2023-05-17T12:15:53;102289.72;;;14.58;47.66
46942;BME280;32676;52.630;4.896;2023-05-17T12:18:20;102285.34;;;14.57;47.20
46942;BME280;32676;52.630;4.896;2023-05-17T12:20:53;102294.13;;;14.59;47.14
46942;BME280;32676;52.630;4.896;2023-05-17T12:23:24;102315.09;;;14.66;47.24
46942;BME280;32676;52.630;4.896;2023-05-17T12:25:50;102386.19;;;14.81;48.12
46942;BME280;32676;52.630;4.896;2023-05-17T12:28:27;102408.94;;;14.88;47.63
46942;BME280;32676;52.630;4.896;2023-05-17T12:30:54;102447.59;;;14.95;47.69
46942;BME280;32676;52.630;4.896;2023-05-17T12:33:21;102466.84;;;15.01;46.42
46942;BME280;32676;52.630;4.896;2023-05-17T12:35:48;102493.19;;;15.07;46.18
46942;BME280;32676;52.630;4.896;2023-05-17T12:38:14;102501.09;;;15.08;46.16
46942;BME280;32676;52.630;4.896;2023-05-17T12:40:41;102470.34;;;15.03;46.06
46942;BME280;32676;52.630;4.896;2023-05-17T12:43:08;102423.00;;;14.90;46.15
46942;BME280;32676;52.630;4.896;2023-05-17T12:45:35;102403.72;;;14.85;45.88
46942;BME280;32676;52.630;4.896;2023-05-17T12:48:02;102363.31;;;14.77;46.50
46942;BME280;32676;52.630;4.896;2023-05-17T12:50:28;102343.19;;;14.71;46.67
46942;BME280;32676;52.630;4.896;2023-05-17T12:52:55;102379.13;;;14.80;47.36
46942;BME280;32676;52.630;4.896;2023-05-17T12:55:21;102417.78;;;14.87;47.34